Alva, Mississippi
Current Conditions -  °F | °C
As of 10:15 AM on Thursday 27 Nov 2014 (Local Time) from KGNF Reporting Station
Overcast Overcast  
Wind Chill: 37°   Ceiling: 3100
Heat Index: 41°   Visibility: 10mi
Dew Point: 30°   Wind: 6mph
Humidity: 65%   Direction: 20°NNE
Pressure: 30.51"   Gusts: NA
Location:  33.6702°N, 89.6861°W
Report Text: KGNF 271615Z AUTO 02005KT 10SM OVC031 05/M01 A3051 RMK AO2
Loading
Personal Weather Stations






























Interactive Weather Map New forecast layout! Learn more

10-Day Weather Forecast

Advertisements
Track Severe Weather on mobile